sensor_id;sensor_type;location;lat;lon;timestamp;pressure;altitude;pressure_sealevel;temperature;humidity
72961;BME280;61141;46.204;19.774;2023-03-19T00:00:05;100843.47;;;4.44;73.48
72961;BME280;61141;46.204;19.774;2023-03-19T00:03:10;100835.62;;;4.34;73.79
72961;BME280;61141;46.204;19.774;2023-03-19T00:06:13;100848.03;;;4.26;74.01
72961;BME280;61141;46.204;19.774;2023-03-19T00:09:16;100831.47;;;4.28;74.07
72961;BME280;61141;46.204;19.774;2023-03-19T00:12:19;100830.34;;;4.29;74.04
72961;BME280;61141;46.204;19.774;2023-03-19T00:15:22;100845.56;;;4.47;73.85
72961;BME280;61141;46.204;19.774;2023-03-19T00:18:25;100838.22;;;4.39;73.78
72961;BME280;61141;46.204;19.774;2023-03-19T00:21:28;100841.75;;;4.56;73.51
72961;BME280;61141;46.204;19.774;2023-03-19T00:24:33;100843.16;;;4.54;73.21
72961;BME280;61141;46.204;19.774;2023-03-19T00:27:36;100827.03;;;4.40;73.43
72961;BME280;61141;46.204;19.774;2023-03-19T00:30:39;100836.44;;;4.43;73.38
72961;BME280;61141;46.204;19.774;2023-03-19T00:33:43;100834.06;;;4.41;73.76
72961;BME280;61141;46.204;19.774;2023-03-19T00:36:47;100830.19;;;4.34;73.97
72961;BME280;61141;46.204;19.774;2023-03-19T00:39:50;100826.19;;;4.31;74.03
72961;BME280;61141;46.204;19.774;2023-03-19T00:42:53;100835.91;;;4.24;74.15
72961;BME280;61141;46.204;19.774;2023-03-19T00:45:55;100828.59;;;4.24;74.30
72961;BME280;61141;46.204;19.774;2023-03-19T00:48:58;100822.22;;;4.29;74.39
72961;BME280;61141;46.204;19.774;2023-03-19T00:52:01;100821.41;;;4.20;74.18
72961;BME280;61141;46.204;19.774;2023-03-19T00:55:05;100828.12;;;4.31;74.18
72961;BME280;61141;46.204;19.774;2023-03-19T00:58:08;100809.94;;;4.31;73.94
72961;BME280;61141;46.204;19.774;2023-03-19T01:01:14;100824.00;;;4.33;74.13
72961;BME280;61141;46.204;19.774;2023-03-19T01:04:17;100806.91;;;4.24;74.15
72961;BME280;61141;46.204;19.774;2023-03-19T01:07:21;100811.88;;;4.31;73.99
72961;BME280;61141;46.204;19.774;2023-03-19T01:10:24;100807.06;;;4.28;74.16
72961;BME280;61141;46.204;19.774;2023-03-19T01:13:27;100812.81;;;4.35;74.12
72961;BME280;61141;46.204;19.774;2023-03-19T01:16:30;100804.00;;;4.21;74.08
72961;BME280;61141;46.204;19.774;2023-03-19T01:19:33;100815.69;;;4.30;74.28
72961;BME280;61141;46.204;19.774;2023-03-19T01:22:36;100817.91;;;4.28;74.30
72961;BME280;61141;46.204;19.774;2023-03-19T01:25:39;100819.34;;;4.25;74.58
72961;BME280;61141;46.204;19.774;2023-03-19T01:28:42;100823.34;;;4.28;74.32
72961;BME280;61141;46.204;19.774;2023-03-19T01:31:46;100801.12;;;4.17;74.42
72961;BME280;61141;46.204;19.774;2023-03-19T01:34:49;100801.16;;;4.34;74.23
72961;BME280;61141;46.204;19.774;2023-03-19T01:37:52;100820.63;;;4.28;74.34
72961;BME280;61141;46.204;19.774;2023-03-19T01:40:55;100816.19;;;4.40;74.34
72961;BME280;61141;46.204;19.774;2023-03-19T01:43:58;100794.13;;;4.16;74.33
72961;BME280;61141;46.204;19.774;2023-03-19T01:47:05;100791.09;;;4.18;74.60
72961;BME280;61141;46.204;19.774;2023-03-19T01:50:33;100792.22;;;4.17;74.60
72961;BME280;61141;46.204;19.774;2023-03-19T01:53:46;100787.91;;;4.15;74.83
72961;BME280;61141;46.204;19.774;2023-03-19T01:56:57;100789.50;;;4.17;74.84
72961;BME280;61141;46.204;19.774;2023-03-19T02:00:02;100792.19;;;4.08;75.20
72961;BME280;61141;46.204;19.774;2023-03-19T02:03:17;100784.72;;;4.13;74.87
72961;BME280;61141;46.204;19.774;2023-03-19T02:06:22;100770.50;;;4.08;75.05
72961;BME280;61141;46.204;19.774;2023-03-19T02:09:26;100776.72;;;4.08;74.98
72961;BME280;61141;46.204;19.774;2023-03-19T02:12:30;100765.22;;;3.94;75.18
72961;BME280;61141;46.204;19.774;2023-03-19T02:15:33;100766.13;;;3.90;75.52
72961;BME280;61141;46.204;19.774;2023-03-19T02:18:36;100768.50;;;3.83;75.89
72961;BME280;61141;46.204;19.774;2023-03-19T02:21:39;100765.16;;;3.77;75.97
72961;BME280;61141;46.204;19.774;2023-03-19T02:25:00;100769.88;;;3.63;76.10
72961;BME280;61141;46.204;19.774;2023-03-19T02:28:05;100765.50;;;3.53;76.56
72961;BME280;61141;46.204;19.774;2023-03-19T02:31:10;100778.75;;;3.55;76.97
72961;BME280;61141;46.204;19.774;2023-03-19T02:37:26;100780.31;;;3.47;77.14
72961;BME280;61141;46.204;19.774;2023-03-19T02:40:33;100776.63;;;3.43;77.40
72961;BME280;61141;46.204;19.774;2023-03-19T02:43:40;100778.97;;;3.36;77.63
72961;BME280;61141;46.204;19.774;2023-03-19T02:46:43;100779.47;;;3.38;77.83
72961;BME280;61141;46.204;19.774;2023-03-19T02:49:46;100773.56;;;3.36;77.73
72961;BME280;61141;46.204;19.774;2023-03-19T02:52:49;100764.91;;;3.26;77.83
72961;BME280;61141;46.204;19.774;2023-03-19T02:55:52;100777.31;;;3.27;77.97
72961;BME280;61141;46.204;19.774;2023-03-19T02:58:55;100774.28;;;2.97;78.21
72961;BME280;61141;46.204;19.774;2023-03-19T03:01:58;100765.03;;;2.76;78.95
72961;BME280;61141;46.204;19.774;2023-03-19T03:05:01;100775.31;;;2.66;79.46
72961;BME280;61141;46.204;19.774;2023-03-19T03:08:04;100773.78;;;2.73;79.98
72961;BME280;61141;46.204;19.774;2023-03-19T03:11:08;100780.41;;;2.67;80.95
72961;BME280;61141;46.204;19.774;2023-03-19T03:14:11;100761.47;;;2.45;80.69
72961;BME280;61141;46.204;19.774;2023-03-19T03:17:14;100777.53;;;2.64;80.76
72961;BME280;61141;46.204;19.774;2023-03-19T03:20:18;100769.41;;;2.64;80.68
72961;BME280;61141;46.204;19.774;2023-03-19T03:23:21;100774.47;;;2.43;80.55
72961;BME280;61141;46.204;19.774;2023-03-19T03:26:24;100775.63;;;2.28;81.02
72961;BME280;61141;46.204;19.774;2023-03-19T03:29:27;100759.31;;;2.20;81.33
72961;BME280;61141;46.204;19.774;2023-03-19T03:32:30;100771.53;;;2.17;81.68
72961;BME280;61141;46.204;19.774;2023-03-19T03:35:33;100770.13;;;2.20;82.00
72961;BME280;61141;46.204;19.774;2023-03-19T03:38:37;100765.63;;;2.15;82.49
72961;BME280;61141;46.204;19.774;2023-03-19T03:41:40;100767.84;;;1.86;82.23
72961;BME280;61141;46.204;19.774;2023-03-19T03:44:43;100744.16;;;1.69;82.65
72961;BME280;61141;46.204;19.774;2023-03-19T03:47:46;100757.75;;;1.92;82.83
72961;BME280;61141;46.204;19.774;2023-03-19T03:50:49;100760.94;;;1.94;82.89
72961;BME280;61141;46.204;19.774;2023-03-19T03:53:53;100752.13;;;2.02;83.05
72961;BME280;61141;46.204;19.774;2023-03-19T03:56:56;100756.66;;;1.93;82.82
72961;BME280;61141;46.204;19.774;2023-03-19T03:59:59;100761.03;;;1.89;82.81
72961;BME280;61141;46.204;19.774;2023-03-19T04:03:02;100757.34;;;1.85;83.21
72961;BME280;61141;46.204;19.774;2023-03-19T04:06:06;100757.03;;;1.86;83.61
72961;BME280;61141;46.204;19.774;2023-03-19T04:09:09;100758.22;;;1.94;83.55
72961;BME280;61141;46.204;19.774;2023-03-19T04:12:12;100750.94;;;1.94;83.33
72961;BME280;61141;46.204;19.774;2023-03-19T04:15:16;100758.44;;;1.84;83.33
72961;BME280;61141;46.204;19.774;2023-03-19T04:18:20;100769.25;;;1.84;83.76
72961;BME280;61141;46.204;19.774;2023-03-19T04:21:22;100765.94;;;1.73;83.88
72961;BME280;61141;46.204;19.774;2023-03-19T04:24:26;100753.53;;;1.86;84.13
72961;BME280;61141;46.204;19.774;2023-03-19T04:27:29;100762.06;;;1.79;84.25
72961;BME280;61141;46.204;19.774;2023-03-19T04:30:32;100764.66;;;1.57;83.78
72961;BME280;61141;46.204;19.774;2023-03-19T04:33:37;100766.22;;;1.44;83.91
72961;BME280;61141;46.204;19.774;2023-03-19T04:36:40;100767.41;;;1.38;84.29
72961;BME280;61141;46.204;19.774;2023-03-19T04:39:43;100758.50;;;1.24;84.46
72961;BME280;61141;46.204;19.774;2023-03-19T04:42:47;100769.37;;;1.19;85.18
72961;BME280;61141;46.204;19.774;2023-03-19T04:45:51;100756.25;;;0.99;85.17
72961;BME280;61141;46.204;19.774;2023-03-19T04:48:54;100740.97;;;1.08;85.34
72961;BME280;61141;46.204;19.774;2023-03-19T04:51:57;100742.47;;;1.14;85.31
72961;BME280;61141;46.204;19.774;2023-03-19T04:55:00;100757.28;;;1.16;85.23
72961;BME280;61141;46.204;19.774;2023-03-19T04:58:04;100765.09;;;1.18;85.01
72961;BME280;61141;46.204;19.774;2023-03-19T05:01:08;100757.41;;;1.25;84.89
72961;BME280;61141;46.204;19.774;2023-03-19T05:04:13;100755.37;;;1.17;84.87
72961;BME280;61141;46.204;19.774;2023-03-19T05:07:16;100769.50;;;1.28;85.12
72961;BME280;61141;46.204;19.774;2023-03-19T05:10:19;100778.63;;;1.45;84.84
72961;BME280;61141;46.204;19.774;2023-03-19T05:13:22;100766.31;;;1.39;84.70
72961;BME280;61141;46.204;19.774;2023-03-19T05:16:25;100760.91;;;1.39;84.25
72961;BME280;61141;46.204;19.774;2023-03-19T05:19:29;100779.63;;;1.49;83.99
72961;BME280;61141;46.204;19.774;2023-03-19T05:22:32;100781.09;;;1.28;84.04
72961;BME280;61141;46.204;19.774;2023-03-19T05:25:36;100782.69;;;1.29;84.48
72961;BME280;61141;46.204;19.774;2023-03-19T05:28:39;100773.50;;;1.30;84.63
72961;BME280;61141;46.204;19.774;2023-03-19T05:31:42;100777.69;;;1.36;84.88
72961;BME280;61141;46.204;19.774;2023-03-19T05:34:45;100783.44;;;1.48;84.94
72961;BME280;61141;46.204;19.774;2023-03-19T05:37:48;100775.81;;;1.50;85.15
72961;BME280;61141;46.204;19.774;2023-03-19T05:40:51;100781.56;;;1.76;84.45
72961;BME280;61141;46.204;19.774;2023-03-19T05:43:54;100790.56;;;1.99;83.50
72961;BME280;61141;46.204;19.774;2023-03-19T05:46:58;100792.22;;;2.22;82.46
72961;BME280;61141;46.204;19.774;2023-03-19T05:50:01;100788.19;;;2.47;81.02
72961;BME280;61141;46.204;19.774;2023-03-19T05:53:04;100801.84;;;2.64;80.25
72961;BME280;61141;46.204;19.774;2023-03-19T05:56:09;100797.56;;;2.85;79.52
72961;BME280;61141;46.204;19.774;2023-03-19T05:59:13;100791.94;;;2.95;78.55
72961;BME280;61141;46.204;19.774;2023-03-19T06:02:18;100801.62;;;3.18;77.56
72961;BME280;61141;46.204;19.774;2023-03-19T06:05:21;100810.75;;;3.22;77.16
72961;BME280;61141;46.204;19.774;2023-03-19T06:08:25;100798.59;;;3.42;76.16
72961;BME280;61141;46.204;19.774;2023-03-19T06:11:29;100816.75;;;3.72;75.55
72961;BME280;61141;46.204;19.774;2023-03-19T06:14:35;100811.81;;;3.74;75.01
72961;BME280;61141;46.204;19.774;2023-03-19T06:17:39;100810.16;;;3.95;74.13
72961;BME280;61141;46.204;19.774;2023-03-19T06:20:43;100803.97;;;4.03;73.29
72961;BME280;61141;46.204;19.774;2023-03-19T06:23:47;100795.88;;;4.21;72.81
72961;BME280;61141;46.204;19.774;2023-03-19T06:26:50;100804.88;;;4.47;71.83
72961;BME280;61141;46.204;19.774;2023-03-19T06:29:53;100816.06;;;4.62;71.44
72961;BME280;61141;46.204;19.774;2023-03-19T06:32:56;100812.56;;;4.79;70.39
72961;BME280;61141;46.204;19.774;2023-03-19T06:35:59;100814.00;;;5.02;69.57
72961;BME280;61141;46.204;19.774;2023-03-19T06:39:04;100825.34;;;5.13;68.72
72961;BME280;61141;46.204;19.774;2023-03-19T06:42:07;100820.81;;;5.34;68.34
72961;BME280;61141;46.204;19.774;2023-03-19T06:45:11;100819.34;;;5.54;67.42
72961;BME280;61141;46.204;19.774;2023-03-19T06:48:13;100820.75;;;5.68;66.87
72961;BME280;61141;46.204;19.774;2023-03-19T06:51:17;100812.56;;;5.77;66.54
72961;BME280;61141;46.204;19.774;2023-03-19T06:54:20;100817.66;;;5.78;66.30
72961;BME280;61141;46.204;19.774;2023-03-19T06:57:22;100817.25;;;6.06;66.02
72961;BME280;61141;46.204;19.774;2023-03-19T07:00:25;100816.19;;;6.27;64.77
72961;BME280;61141;46.204;19.774;2023-03-19T07:03:29;100822.19;;;6.41;64.53
72961;BME280;61141;46.204;19.774;2023-03-19T07:06:33;100832.12;;;6.67;63.61
72961;BME280;61141;46.204;19.774;2023-03-19T07:09:36;100833.16;;;6.74;63.44
72961;BME280;61141;46.204;19.774;2023-03-19T07:12:39;100834.56;;;6.80;63.27
72961;BME280;61141;46.204;19.774;2023-03-19T07:15:42;100827.94;;;6.90;62.68
72961;BME280;61141;46.204;19.774;2023-03-19T07:18:45;100827.84;;;7.19;61.29
72961;BME280;61141;46.204;19.774;2023-03-19T07:21:48;100808.69;;;7.28;60.78
72961;BME280;61141;46.204;19.774;2023-03-19T07:24:51;100826.59;;;7.49;59.91
72961;BME280;61141;46.204;19.774;2023-03-19T07:27:53;100833.34;;;7.64;58.84
72961;BME280;61141;46.204;19.774;2023-03-19T07:30:57;100817.88;;;7.68;58.86
72961;BME280;61141;46.204;19.774;2023-03-19T07:34:00;100816.22;;;7.88;57.58
72961;BME280;61141;46.204;19.774;2023-03-19T07:37:03;100817.00;;;7.88;57.26
72961;BME280;61141;46.204;19.774;2023-03-19T07:40:06;100827.37;;;7.95;57.62
72961;BME280;61141;46.204;19.774;2023-03-19T07:43:10;100824.19;;;8.17;57.85
72961;BME280;61141;46.204;19.774;2023-03-19T07:46:12;100823.53;;;8.32;57.23
72961;BME280;61141;46.204;19.774;2023-03-19T07:49:16;100823.41;;;8.53;56.61
72961;BME280;61141;46.204;19.774;2023-03-19T07:52:19;100831.38;;;8.58;56.46
72961;BME280;61141;46.204;19.774;2023-03-19T07:55:22;100841.72;;;8.52;56.10
72961;BME280;61141;46.204;19.774;2023-03-19T07:58:25;100829.63;;;8.77;55.19
72961;BME280;61141;46.204;19.774;2023-03-19T08:01:28;100826.66;;;8.82;55.22
72961;BME280;61141;46.204;19.774;2023-03-19T08:04:31;100812.31;;;8.73;55.94
72961;BME280;61141;46.204;19.774;2023-03-19T08:07:35;100825.06;;;9.09;54.90
72961;BME280;61141;46.204;19.774;2023-03-19T08:10:38;100825.84;;;9.22;54.13
72961;BME280;61141;46.204;19.774;2023-03-19T08:13:41;100830.25;;;9.26;54.96
72961;BME280;61141;46.204;19.774;2023-03-19T08:16:44;100820.69;;;9.48;53.20
72961;BME280;61141;46.204;19.774;2023-03-19T08:19:47;100824.50;;;9.59;52.75
72961;BME280;61141;46.204;19.774;2023-03-19T08:22:50;100823.69;;;9.59;52.25
72961;BME280;61141;46.204;19.774;2023-03-19T08:25:53;100813.41;;;9.83;52.70
72961;BME280;61141;46.204;19.774;2023-03-19T08:28:58;100824.63;;;9.94;51.89
72961;BME280;61141;46.204;19.774;2023-03-19T08:32:00;100812.09;;;9.77;50.85
72961;BME280;61141;46.204;19.774;2023-03-19T08:35:03;100829.31;;;9.93;51.12
72961;BME280;61141;46.204;19.774;2023-03-19T08:38:07;100825.94;;;10.00;50.48
72961;BME280;61141;46.204;19.774;2023-03-19T08:41:10;100835.53;;;10.22;50.52
72961;BME280;61141;46.204;19.774;2023-03-19T08:44:13;100834.06;;;10.43;49.47
72961;BME280;61141;46.204;19.774;2023-03-19T08:47:16;100836.81;;;10.43;49.55
72961;BME280;61141;46.204;19.774;2023-03-19T08:50:19;100839.50;;;10.59;49.63
72961;BME280;61141;46.204;19.774;2023-03-19T08:53:22;100819.69;;;10.46;49.00
72961;BME280;61141;46.204;19.774;2023-03-19T08:56:25;100830.00;;;10.72;49.10
72961;BME280;61141;46.204;19.774;2023-03-19T08:59:28;100829.69;;;10.74;49.53
72961;BME280;61141;46.204;19.774;2023-03-19T09:02:35;100829.69;;;10.93;49.08
72961;BME280;61141;46.204;19.774;2023-03-19T09:05:38;100835.62;;;11.14;48.37
72961;BME280;61141;46.204;19.774;2023-03-19T09:08:41;100838.13;;;11.23;48.05
72961;BME280;61141;46.204;19.774;2023-03-19T09:11:44;100835.03;;;11.43;47.99
72961;BME280;61141;46.204;19.774;2023-03-19T09:14:47;100826.72;;;11.40;47.70
72961;BME280;61141;46.204;19.774;2023-03-19T09:17:51;100822.16;;;11.47;48.08
72961;BME280;61141;46.204;19.774;2023-03-19T09:20:53;100816.75;;;11.51;47.90
72961;BME280;61141;46.204;19.774;2023-03-19T09:23:56;100815.41;;;11.64;47.18
72961;BME280;61141;46.204;19.774;2023-03-19T09:26:59;100823.37;;;11.69;46.15
72961;BME280;61141;46.204;19.774;2023-03-19T09:30:03;100815.31;;;11.57;47.30
72961;BME280;61141;46.204;19.774;2023-03-19T09:33:06;100825.41;;;11.72;46.66
72961;BME280;61141;46.204;19.774;2023-03-19T09:36:09;100812.87;;;11.33;47.35
72961;BME280;61141;46.204;19.774;2023-03-19T09:39:12;100820.81;;;11.38;47.91
72961;BME280;61141;46.204;19.774;2023-03-19T09:42:39;100821.16;;;11.36;47.81
72961;BME280;61141;46.204;19.774;2023-03-19T09:45:46;100821.72;;;11.64;47.75
72961;BME280;61141;46.204;19.774;2023-03-19T09:55:33;100809.00;;;11.98;47.42
72961;BME280;61141;46.204;19.774;2023-03-19T09:58:37;100819.28;;;12.05;46.21
72961;BME280;61141;46.204;19.774;2023-03-19T10:01:46;100814.28;;;12.10;46.72
72961;BME280;61141;46.204;19.774;2023-03-19T10:05:14;100804.59;;;12.16;46.54
72961;BME280;61141;46.204;19.774;2023-03-19T10:08:44;100808.38;;;12.34;46.85
72961;BME280;61141;46.204;19.774;2023-03-19T10:15:30;100794.81;;;12.45;46.67
72961;BME280;61141;46.204;19.774;2023-03-19T10:18:35;100793.50;;;12.35;46.22
72961;BME280;61141;46.204;19.774;2023-03-19T10:25:42;100789.22;;;12.64;46.09
72961;BME280;61141;46.204;19.774;2023-03-19T10:29:18;100795.66;;;12.79;45.81
72961;BME280;61141;46.204;19.774;2023-03-19T10:32:52;100791.53;;;12.92;45.57
72961;BME280;61141;46.204;19.774;2023-03-19T10:36:08;100787.81;;;13.07;45.11
72961;BME280;61141;46.204;19.774;2023-03-19T10:39:14;100797.97;;;13.03;45.38
72961;BME280;61141;46.204;19.774;2023-03-19T10:45:47;100776.56;;;13.19;45.89
72961;BME280;61141;46.204;19.774;2023-03-19T10:48:50;100773.81;;;13.19;44.79
72961;BME280;61141;46.204;19.774;2023-03-19T10:51:56;100765.44;;;13.09;45.46
72961;BME280;61141;46.204;19.774;2023-03-19T10:55:22;100763.16;;;13.14;45.08
72961;BME280;61141;46.204;19.774;2023-03-19T10:58:27;100752.72;;;13.30;44.87
72961;BME280;61141;46.204;19.774;2023-03-19T11:01:33;100735.53;;;13.44;45.01
72961;BME280;61141;46.204;19.774;2023-03-19T11:04:37;100727.94;;;13.30;45.24
72961;BME280;61141;46.204;19.774;2023-03-19T11:07:40;100734.78;;;13.47;44.86
72961;BME280;61141;46.204;19.774;2023-03-19T11:10:48;100737.22;;;13.15;45.24
72961;BME280;61141;46.204;19.774;2023-03-19T11:13:51;100733.22;;;13.09;46.04
72961;BME280;61141;46.204;19.774;2023-03-19T11:20:30;100719.06;;;13.47;45.60
72961;BME280;61141;46.204;19.774;2023-03-19T11:23:37;100724.81;;;13.76;44.65
72961;BME280;61141;46.204;19.774;2023-03-19T11:26:40;100718.78;;;14.14;44.21
72961;BME280;61141;46.204;19.774;2023-03-19T11:29:44;100692.06;;;14.18;43.09
72961;BME280;61141;46.204;19.774;2023-03-19T11:39:24;100697.84;;;13.99;43.20
72961;BME280;61141;46.204;19.774;2023-03-19T11:45:53;100679.97;;;13.75;44.10
72961;BME280;61141;46.204;19.774;2023-03-19T11:49:35;100672.97;;;13.88;44.60
72961;BME280;61141;46.204;19.774;2023-03-19T11:53:01;100677.34;;;13.93;43.99
72961;BME280;61141;46.204;19.774;2023-03-19T11:56:23;100667.22;;;14.14;44.22
72961;BME280;61141;46.204;19.774;2023-03-19T12:09:59;100655.34;;;14.90;40.96
72961;BME280;61141;46.204;19.774;2023-03-19T12:36:53;100612.03;;;15.29;41.38
72961;BME280;61141;46.204;19.774;2023-03-19T12:40:12;100606.91;;;15.42;41.75
72961;BME280;61141;46.204;19.774;2023-03-19T12:43:31;100591.94;;;15.18;40.87
72961;BME280;61141;46.204;19.774;2023-03-19T12:46:40;100605.34;;;15.23;41.17
72961;BME280;61141;46.204;19.774;2023-03-19T12:49:56;100598.22;;;15.36;40.95
72961;BME280;61141;46.204;19.774;2023-03-19T12:53:01;100603.00;;;15.53;40.24
72961;BME280;61141;46.204;19.774;2023-03-19T13:00:08;100592.72;;;15.47;39.27
72961;BME280;61141;46.204;19.774;2023-03-19T13:03:16;100587.59;;;15.52;39.61
72961;BME280;61141;46.204;19.774;2023-03-19T13:06:33;100593.47;;;15.72;39.17
72961;BME280;61141;46.204;19.774;2023-03-19T13:09:53;100594.66;;;15.74;38.45
72961;BME280;61141;46.204;19.774;2023-03-19T13:19:50;100584.78;;;15.88;39.14
72961;BME280;61141;46.204;19.774;2023-03-19T13:22:59;100591.03;;;16.02;39.12
72961;BME280;61141;46.204;19.774;2023-03-19T13:26:07;100580.03;;;15.92;38.16
72961;BME280;61141;46.204;19.774;2023-03-19T13:29:23;100579.66;;;15.82;36.90
72961;BME280;61141;46.204;19.774;2023-03-19T13:32:50;100570.22;;;15.69;37.38
72961;BME280;61141;46.204;19.774;2023-03-19T13:35:56;100567.03;;;15.81;39.69
72961;BME280;61141;46.204;19.774;2023-03-19T13:39:03;100555.56;;;15.86;39.34
72961;BME280;61141;46.204;19.774;2023-03-19T13:45:34;100552.84;;;15.72;39.54
72961;BME280;61141;46.204;19.774;2023-03-19T13:51:47;100534.66;;;15.85;39.79
72961;BME280;61141;46.204;19.774;2023-03-19T13:54:53;100527.16;;;15.86;39.38
72961;BME280;61141;46.204;19.774;2023-03-19T14:04:32;100534.34;;;15.59;39.10
72961;BME280;61141;46.204;19.774;2023-03-19T14:07:37;100528.03;;;15.58;39.98
72961;BME280;61141;46.204;19.774;2023-03-19T14:10:52;100529.16;;;15.82;40.71
72961;BME280;61141;46.204;19.774;2023-03-19T14:14:00;100520.81;;;15.93;39.06
72961;BME280;61141;46.204;19.774;2023-03-19T14:17:04;100525.53;;;15.96;39.47
72961;BME280;61141;46.204;19.774;2023-03-19T14:23:26;100521.56;;;16.04;38.57
72961;BME280;61141;46.204;19.774;2023-03-19T14:26:43;100514.47;;;15.99;38.12
72961;BME280;61141;46.204;19.774;2023-03-19T14:29:47;100507.38;;;15.91;38.39
72961;BME280;61141;46.204;19.774;2023-03-19T14:32:51;100516.84;;;15.97;38.54
72961;BME280;61141;46.204;19.774;2023-03-19T14:35:58;100512.53;;;15.96;39.31
72961;BME280;61141;46.204;19.774;2023-03-19T14:39:17;100506.25;;;15.81;39.22
72961;BME280;61141;46.204;19.774;2023-03-19T14:42:27;100512.97;;;15.80;39.74
72961;BME280;61141;46.204;19.774;2023-03-19T14:45:48;100514.56;;;15.74;40.17
72961;BME280;61141;46.204;19.774;2023-03-19T14:53:10;100490.16;;;15.62;40.56
72961;BME280;61141;46.204;19.774;2023-03-19T14:56:25;100501.56;;;15.68;39.88
72961;BME280;61141;46.204;19.774;2023-03-19T14:59:36;100502.00;;;15.63;39.76
72961;BME280;61141;46.204;19.774;2023-03-19T15:02:53;100504.38;;;15.57;39.96
72961;BME280;61141;46.204;19.774;2023-03-19T15:05:59;100502.41;;;15.51;39.84
72961;BME280;61141;46.204;19.774;2023-03-19T15:09:11;100488.59;;;15.40;40.60
72961;BME280;61141;46.204;19.774;2023-03-19T15:12:29;100501.22;;;15.38;40.55
72961;BME280;61141;46.204;19.774;2023-03-19T15:18:57;100498.09;;;15.18;40.68
72961;BME280;61141;46.204;19.774;2023-03-19T22:20:45;100563.91;;;9.08;71.90
72961;BME280;61141;46.204;19.774;2023-03-19T22:23:49;100578.16;;;9.02;71.93
72961;BME280;61141;46.204;19.774;2023-03-19T22:26:55;100565.75;;;9.04;70.51
72961;BME280;61141;46.204;19.774;2023-03-19T22:30:00;100557.09;;;9.02;71.83
72961;BME280;61141;46.204;19.774;2023-03-19T22:33:15;100558.94;;;8.98;72.80
72961;BME280;61141;46.204;19.774;2023-03-19T22:36:19;100557.19;;;8.90;73.44
72961;BME280;61141;46.204;19.774;2023-03-19T22:39:22;100551.19;;;8.84;72.27
72961;BME280;61141;46.204;19.774;2023-03-19T22:42:25;100550.75;;;8.82;71.26
72961;BME280;61141;46.204;19.774;2023-03-19T22:45:30;100558.16;;;8.82;69.85
72961;BME280;61141;46.204;19.774;2023-03-19T22:48:35;100550.31;;;8.80;70.23
72961;BME280;61141;46.204;19.774;2023-03-19T22:51:38;100547.12;;;8.78;71.13
72961;BME280;61141;46.204;19.774;2023-03-19T22:54:41;100551.38;;;8.76;70.71
72961;BME280;61141;46.204;19.774;2023-03-19T22:57:44;100558.44;;;8.77;70.40
72961;BME280;61141;46.204;19.774;2023-03-19T23:00:48;100552.59;;;8.78;71.07
72961;BME280;61141;46.204;19.774;2023-03-19T23:03:51;100553.66;;;8.74;72.70
72961;BME280;61141;46.204;19.774;2023-03-19T23:06:55;100554.47;;;8.74;72.15
72961;BME280;61141;46.204;19.774;2023-03-19T23:09:58;100549.59;;;8.68;73.06
72961;BME280;61141;46.204;19.774;2023-03-19T23:13:02;100537.09;;;8.67;71.86
72961;BME280;61141;46.204;19.774;2023-03-19T23:16:16;100521.44;;;8.64;70.16
72961;BME280;61141;46.204;19.774;2023-03-19T23:19:26;100532.78;;;8.81;69.89
72961;BME280;61141;46.204;19.774;2023-03-19T23:22:29;100539.84;;;8.82;70.81
72961;BME280;61141;46.204;19.774;2023-03-19T23:25:33;100538.69;;;8.83;70.39
72961;BME280;61141;46.204;19.774;2023-03-19T23:28:36;100539.47;;;8.84;70.36
72961;BME280;61141;46.204;19.774;2023-03-19T23:31:39;100541.78;;;8.82;69.31
72961;BME280;61141;46.204;19.774;2023-03-19T23:34:42;100532.78;;;8.81;71.16
72961;BME280;61141;46.204;19.774;2023-03-19T23:37:59;100523.72;;;8.77;70.04
72961;BME280;61141;46.204;19.774;2023-03-19T23:41:03;100526.78;;;8.76;70.54
72961;BME280;61141;46.204;19.774;2023-03-19T23:44:08;100545.19;;;8.79;71.22
72961;BME280;61141;46.204;19.774;2023-03-19T23:47:13;100538.06;;;8.74;71.08
72961;BME280;61141;46.204;19.774;2023-03-19T23:50:16;100539.56;;;8.72;71.24
72961;BME280;61141;46.204;19.774;2023-03-19T23:53:23;100543.44;;;8.71;71.39
72961;BME280;61141;46.204;19.774;2023-03-19T23:56:26;100532.50;;;8.71;71.57
72961;BME280;61141;46.204;19.774;2023-03-19T23:59:33;100532.34;;;8.79;70.09
